sensor_id;sensor_type;location;lat;lon;timestamp;P1;durP1;ratioP1;P2;durP2;ratioP2
42944;SDS011;28584;42.636;23.294;2023-07-22T00:00:25;18.10;;;7.43;;
42944;SDS011;28584;42.636;23.294;2023-07-22T00:02:51;11.05;;;6.90;;
42944;SDS011;28584;42.636;23.294;2023-07-22T00:05:16;12.50;;;6.60;;
42944;SDS011;28584;42.636;23.294;2023-07-22T00:07:47;7.28;;;6.05;;
42944;SDS011;28584;42.636;23.294;2023-07-22T00:10:12;9.55;;;6.57;;
42944;SDS011;28584;42.636;23.294;2023-07-22T00:12:38;10.60;;;6.28;;
42944;SDS011;28584;42.636;23.294;2023-07-22T00:15:03;15.13;;;6.05;;
42944;SDS011;28584;42.636;23.294;2023-07-22T00:17:29;11.18;;;6.80;;
42944;SDS011;28584;42.636;23.294;2023-07-22T00:19:54;12.10;;;6.22;;
42944;SDS011;28584;42.636;23.294;2023-07-22T00:22:20;12.98;;;6.30;;
42944;SDS011;28584;42.636;23.294;2023-07-22T00:24:46;11.70;;;6.13;;
42944;SDS011;28584;42.636;23.294;2023-07-22T00:27:12;18.75;;;7.00;;
42944;SDS011;28584;42.636;23.294;2023-07-22T00:29:37;12.75;;;6.45;;
42944;SDS011;28584;42.636;23.294;2023-07-22T00:32:04;9.82;;;6.68;;
42944;SDS011;28584;42.636;23.294;2023-07-22T00:34:32;10.52;;;6.63;;
42944;SDS011;28584;42.636;23.294;2023-07-22T00:36:57;9.80;;;6.63;;
42944;SDS011;28584;42.636;23.294;2023-07-22T00:39:24;10.07;;;6.68;;
42944;SDS011;28584;42.636;23.294;2023-07-22T00:41:49;9.98;;;6.43;;
42944;SDS011;28584;42.636;23.294;2023-07-22T00:44:15;11.75;;;7.00;;
42944;SDS011;28584;42.636;23.294;2023-07-22T00:46:40;13.75;;;9.30;;
42944;SDS011;28584;42.636;23.294;2023-07-22T00:49:06;10.13;;;6.70;;
42944;SDS011;28584;42.636;23.294;2023-07-22T00:51:33;10.90;;;7.15;;
42944;SDS011;28584;42.636;23.294;2023-07-22T00:53:58;10.95;;;6.75;;
42944;SDS011;28584;42.636;23.294;2023-07-22T00:56:24;12.52;;;6.68;;
42944;SDS011;28584;42.636;23.294;2023-07-22T00:58:50;11.73;;;6.55;;
42944;SDS011;28584;42.636;23.294;2023-07-22T01:01:16;13.07;;;7.28;;
42944;SDS011;28584;42.636;23.294;2023-07-22T01:03:42;12.07;;;6.88;;
42944;SDS011;28584;42.636;23.294;2023-07-22T01:06:07;13.00;;;7.28;;
42944;SDS011;28584;42.636;23.294;2023-07-22T01:08:34;13.23;;;6.97;;
42944;SDS011;28584;42.636;23.294;2023-07-22T01:11:00;10.57;;;7.30;;
42944;SDS011;28584;42.636;23.294;2023-07-22T01:13:25;9.38;;;6.50;;
42944;SDS011;28584;42.636;23.294;2023-07-22T01:15:51;11.70;;;6.78;;
42944;SDS011;28584;42.636;23.294;2023-07-22T01:18:17;13.85;;;6.88;;
42944;SDS011;28584;42.636;23.294;2023-07-22T01:20:42;11.13;;;6.63;;
42944;SDS011;28584;42.636;23.294;2023-07-22T01:23:09;13.77;;;6.90;;
42944;SDS011;28584;42.636;23.294;2023-07-22T01:25:34;10.05;;;6.68;;
42944;SDS011;28584;42.636;23.294;2023-07-22T01:27:59;9.10;;;6.07;;
42944;SDS011;28584;42.636;23.294;2023-07-22T01:30:25;9.35;;;6.50;;
42944;SDS011;28584;42.636;23.294;2023-07-22T01:32:52;11.38;;;7.25;;
42944;SDS011;28584;42.636;23.294;2023-07-22T01:35:18;10.80;;;6.70;;
42944;SDS011;28584;42.636;23.294;2023-07-22T01:37:44;11.95;;;7.28;;
42944;SDS011;28584;42.636;23.294;2023-07-22T01:40:10;10.35;;;7.07;;
42944;SDS011;28584;42.636;23.294;2023-07-22T01:42:38;9.23;;;6.88;;
42944;SDS011;28584;42.636;23.294;2023-07-22T01:45:05;12.43;;;7.47;;
42944;SDS011;28584;42.636;23.294;2023-07-22T01:47:34;9.15;;;6.68;;
42944;SDS011;28584;42.636;23.294;2023-07-22T01:50:01;14.35;;;8.10;;
42944;SDS011;28584;42.636;23.294;2023-07-22T01:52:27;22.08;;;11.82;;
42944;SDS011;28584;42.636;23.294;2023-07-22T01:54:53;14.93;;;7.90;;
42944;SDS011;28584;42.636;23.294;2023-07-22T01:57:18;14.65;;;7.82;;
42944;SDS011;28584;42.636;23.294;2023-07-22T01:59:43;11.43;;;7.40;;
42944;SDS011;28584;42.636;23.294;2023-07-22T02:02:09;12.82;;;7.18;;
42944;SDS011;28584;42.636;23.294;2023-07-22T02:04:34;13.27;;;7.43;;
42944;SDS011;28584;42.636;23.294;2023-07-22T02:07:00;9.82;;;6.90;;
42944;SDS011;28584;42.636;23.294;2023-07-22T02:09:25;12.52;;;7.18;;
42944;SDS011;28584;42.636;23.294;2023-07-22T02:11:52;8.32;;;6.88;;
42944;SDS011;28584;42.636;23.294;2023-07-22T02:14:18;11.02;;;6.80;;
42944;SDS011;28584;42.636;23.294;2023-07-22T02:16:43;16.38;;;7.57;;
42944;SDS011;28584;42.636;23.294;2023-07-22T02:19:09;13.38;;;7.68;;
42944;SDS011;28584;42.636;23.294;2023-07-22T02:21:34;15.85;;;7.78;;
42944;SDS011;28584;42.636;23.294;2023-07-22T02:24:00;9.75;;;7.07;;
42944;SDS011;28584;42.636;23.294;2023-07-22T02:26:25;12.75;;;7.40;;
42944;SDS011;28584;42.636;23.294;2023-07-22T02:28:51;11.32;;;7.57;;
42944;SDS011;28584;42.636;23.294;2023-07-22T02:31:16;10.80;;;7.28;;
42944;SDS011;28584;42.636;23.294;2023-07-22T02:33:41;11.20;;;7.15;;
42944;SDS011;28584;42.636;23.294;2023-07-22T02:36:07;13.45;;;7.32;;
42944;SDS011;28584;42.636;23.294;2023-07-22T02:38:33;16.50;;;7.68;;
42944;SDS011;28584;42.636;23.294;2023-07-22T02:41:05;13.23;;;7.57;;
42944;SDS011;28584;42.636;23.294;2023-07-22T02:43:32;11.23;;;7.25;;
42944;SDS011;28584;42.636;23.294;2023-07-22T02:46:01;12.65;;;7.85;;
42944;SDS011;28584;42.636;23.294;2023-07-22T02:48:28;13.13;;;7.53;;
42944;SDS011;28584;42.636;23.294;2023-07-22T02:50:54;14.30;;;7.78;;
42944;SDS011;28584;42.636;23.294;2023-07-22T02:53:20;10.07;;;7.60;;
42944;SDS011;28584;42.636;23.294;2023-07-22T02:55:45;11.27;;;7.63;;
42944;SDS011;28584;42.636;23.294;2023-07-22T02:58:11;12.40;;;7.80;;
42944;SDS011;28584;42.636;23.294;2023-07-22T03:00:37;11.95;;;7.70;;
42944;SDS011;28584;42.636;23.294;2023-07-22T03:03:02;14.43;;;7.95;;
42944;SDS011;28584;42.636;23.294;2023-07-22T03:05:30;15.45;;;8.38;;
42944;SDS011;28584;42.636;23.294;2023-07-22T03:07:56;16.30;;;7.72;;
42944;SDS011;28584;42.636;23.294;2023-07-22T03:10:22;14.30;;;7.45;;
42944;SDS011;28584;42.636;23.294;2023-07-22T03:12:48;12.73;;;8.20;;
42944;SDS011;28584;42.636;23.294;2023-07-22T03:15:14;16.27;;;10.85;;
42944;SDS011;28584;42.636;23.294;2023-07-22T03:17:39;15.63;;;8.48;;
42944;SDS011;28584;42.636;23.294;2023-07-22T03:20:07;11.73;;;7.85;;
42944;SDS011;28584;42.636;23.294;2023-07-22T03:22:39;11.38;;;7.43;;
42944;SDS011;28584;42.636;23.294;2023-07-22T03:25:05;10.40;;;7.63;;
42944;SDS011;28584;42.636;23.294;2023-07-22T03:27:34;11.80;;;7.43;;
42944;SDS011;28584;42.636;23.294;2023-07-22T03:30:00;10.48;;;7.60;;
42944;SDS011;28584;42.636;23.294;2023-07-22T03:32:26;14.60;;;8.07;;
42944;SDS011;28584;42.636;23.294;2023-07-22T03:34:52;17.05;;;7.53;;
42944;SDS011;28584;42.636;23.294;2023-07-22T03:37:17;11.93;;;7.57;;
42944;SDS011;28584;42.636;23.294;2023-07-22T03:39:45;14.00;;;6.80;;
42944;SDS011;28584;42.636;23.294;2023-07-22T03:42:10;13.27;;;7.47;;
42944;SDS011;28584;42.636;23.294;2023-07-22T03:44:36;14.07;;;8.15;;
42944;SDS011;28584;42.636;23.294;2023-07-22T03:47:01;11.15;;;6.97;;
42944;SDS011;28584;42.636;23.294;2023-07-22T03:49:26;11.23;;;7.07;;
42944;SDS011;28584;42.636;23.294;2023-07-22T03:51:52;10.40;;;8.07;;
42944;SDS011;28584;42.636;23.294;2023-07-22T03:54:17;7.80;;;6.90;;
42944;SDS011;28584;42.636;23.294;2023-07-22T03:56:43;10.60;;;6.88;;
42944;SDS011;28584;42.636;23.294;2023-07-22T03:59:08;12.13;;;8.10;;
42944;SDS011;28584;42.636;23.294;2023-07-22T04:01:34;9.82;;;6.85;;
42944;SDS011;28584;42.636;23.294;2023-07-22T04:03:59;13.18;;;7.85;;
42944;SDS011;28584;42.636;23.294;2023-07-22T04:06:24;9.82;;;6.47;;
42944;SDS011;28584;42.636;23.294;2023-07-22T04:08:51;13.98;;;8.05;;
42944;SDS011;28584;42.636;23.294;2023-07-22T04:11:17;12.60;;;6.93;;
42944;SDS011;28584;42.636;23.294;2023-07-22T04:13:42;14.07;;;6.90;;
42944;SDS011;28584;42.636;23.294;2023-07-22T04:16:07;12.90;;;6.90;;
42944;SDS011;28584;42.636;23.294;2023-07-22T04:18:33;10.65;;;7.10;;
42944;SDS011;28584;42.636;23.294;2023-07-22T04:20:59;10.82;;;7.18;;
42944;SDS011;28584;42.636;23.294;2023-07-22T04:23:25;13.23;;;7.80;;
42944;SDS011;28584;42.636;23.294;2023-07-22T04:25:51;11.98;;;6.63;;
42944;SDS011;28584;42.636;23.294;2023-07-22T04:28:17;17.00;;;6.78;;
42944;SDS011;28584;42.636;23.294;2023-07-22T04:30:42;10.38;;;7.20;;
42944;SDS011;28584;42.636;23.294;2023-07-22T04:33:08;12.07;;;6.45;;
42944;SDS011;28584;42.636;23.294;2023-07-22T04:35:37;15.52;;;7.20;;
42944;SDS011;28584;42.636;23.294;2023-07-22T04:38:03;11.75;;;7.32;;
42944;SDS011;28584;42.636;23.294;2023-07-22T04:40:29;11.70;;;6.90;;
42944;SDS011;28584;42.636;23.294;2023-07-22T04:42:55;10.27;;;7.13;;
42944;SDS011;28584;42.636;23.294;2023-07-22T04:45:22;17.23;;;7.20;;
42944;SDS011;28584;42.636;23.294;2023-07-22T04:47:51;12.85;;;6.75;;
42944;SDS011;28584;42.636;23.294;2023-07-22T04:50:17;10.77;;;6.78;;
42944;SDS011;28584;42.636;23.294;2023-07-22T04:52:43;11.75;;;7.20;;
42944;SDS011;28584;42.636;23.294;2023-07-22T04:55:10;14.43;;;7.10;;
42944;SDS011;28584;42.636;23.294;2023-07-22T04:57:36;12.23;;;7.05;;
42944;SDS011;28584;42.636;23.294;2023-07-22T05:00:02;15.48;;;6.93;;
42944;SDS011;28584;42.636;23.294;2023-07-22T05:02:33;11.43;;;6.68;;
42944;SDS011;28584;42.636;23.294;2023-07-22T05:04:59;14.00;;;7.15;;
42944;SDS011;28584;42.636;23.294;2023-07-22T05:07:24;11.82;;;6.93;;
42944;SDS011;28584;42.636;23.294;2023-07-22T05:09:50;11.85;;;6.68;;
42944;SDS011;28584;42.636;23.294;2023-07-22T05:12:16;17.85;;;7.30;;
42944;SDS011;28584;42.636;23.294;2023-07-22T05:14:42;13.27;;;7.28;;
42944;SDS011;28584;42.636;23.294;2023-07-22T05:17:07;18.23;;;7.43;;
42944;SDS011;28584;42.636;23.294;2023-07-22T05:19:33;14.95;;;7.35;;
42944;SDS011;28584;42.636;23.294;2023-07-22T05:21:58;12.90;;;7.55;;
42944;SDS011;28584;42.636;23.294;2023-07-22T05:24:24;14.52;;;8.10;;
42944;SDS011;28584;42.636;23.294;2023-07-22T05:26:49;14.65;;;7.28;;
42944;SDS011;28584;42.636;23.294;2023-07-22T05:29:14;13.18;;;7.10;;
42944;SDS011;28584;42.636;23.294;2023-07-22T05:31:40;11.75;;;7.82;;
42944;SDS011;28584;42.636;23.294;2023-07-22T05:34:06;11.55;;;7.72;;
42944;SDS011;28584;42.636;23.294;2023-07-22T05:36:31;11.18;;;7.50;;
42944;SDS011;28584;42.636;23.294;2023-07-22T05:38:57;14.82;;;7.40;;
42944;SDS011;28584;42.636;23.294;2023-07-22T05:41:22;13.45;;;7.20;;
42944;SDS011;28584;42.636;23.294;2023-07-22T05:43:48;11.80;;;8.00;;
42944;SDS011;28584;42.636;23.294;2023-07-22T05:46:13;12.82;;;7.88;;
42944;SDS011;28584;42.636;23.294;2023-07-22T05:48:39;12.68;;;7.28;;
42944;SDS011;28584;42.636;23.294;2023-07-22T05:51:04;15.20;;;6.93;;
42944;SDS011;28584;42.636;23.294;2023-07-22T05:53:30;15.40;;;7.85;;
42944;SDS011;28584;42.636;23.294;2023-07-22T05:55:57;14.98;;;7.35;;
42944;SDS011;28584;42.636;23.294;2023-07-22T05:58:22;12.50;;;7.32;;
42944;SDS011;28584;42.636;23.294;2023-07-22T06:00:48;11.30;;;7.60;;
42944;SDS011;28584;42.636;23.294;2023-07-22T06:03:14;11.65;;;7.50;;
42944;SDS011;28584;42.636;23.294;2023-07-22T06:05:39;17.70;;;7.90;;
42944;SDS011;28584;42.636;23.294;2023-07-22T06:08:05;12.75;;;7.63;;
42944;SDS011;28584;42.636;23.294;2023-07-22T06:10:31;17.77;;;7.97;;
42944;SDS011;28584;42.636;23.294;2023-07-22T06:12:57;12.18;;;7.60;;
42944;SDS011;28584;42.636;23.294;2023-07-22T06:15:22;16.88;;;8.10;;
42944;SDS011;28584;42.636;23.294;2023-07-22T06:17:48;11.30;;;8.00;;
42944;SDS011;28584;42.636;23.294;2023-07-22T06:20:13;12.48;;;8.18;;
42944;SDS011;28584;42.636;23.294;2023-07-22T06:22:39;16.67;;;10.40;;
42944;SDS011;28584;42.636;23.294;2023-07-22T06:25:04;14.65;;;8.70;;
42944;SDS011;28584;42.636;23.294;2023-07-22T06:27:31;12.25;;;7.70;;
42944;SDS011;28584;42.636;23.294;2023-07-22T06:29:56;8.98;;;7.70;;
42944;SDS011;28584;42.636;23.294;2023-07-22T06:32:23;12.70;;;7.82;;
42944;SDS011;28584;42.636;23.294;2023-07-22T06:34:48;14.27;;;8.65;;
42944;SDS011;28584;42.636;23.294;2023-07-22T06:37:14;11.55;;;8.15;;
42944;SDS011;28584;42.636;23.294;2023-07-22T06:39:39;15.57;;;8.73;;
42944;SDS011;28584;42.636;23.294;2023-07-22T06:42:05;19.38;;;9.40;;
42944;SDS011;28584;42.636;23.294;2023-07-22T06:44:30;17.42;;;8.57;;
42944;SDS011;28584;42.636;23.294;2023-07-22T06:46:55;16.00;;;8.15;;
42944;SDS011;28584;42.636;23.294;2023-07-22T06:49:21;13.00;;;8.05;;
42944;SDS011;28584;42.636;23.294;2023-07-22T06:51:47;13.38;;;8.57;;
42944;SDS011;28584;42.636;23.294;2023-07-22T06:54:12;16.70;;;9.25;;
42944;SDS011;28584;42.636;23.294;2023-07-22T06:56:38;17.35;;;9.18;;
42944;SDS011;28584;42.636;23.294;2023-07-22T06:59:03;19.48;;;9.15;;
42944;SDS011;28584;42.636;23.294;2023-07-22T07:01:29;14.27;;;8.55;;
42944;SDS011;28584;42.636;23.294;2023-07-22T07:03:54;14.82;;;9.20;;
42944;SDS011;28584;42.636;23.294;2023-07-22T07:06:20;15.48;;;9.00;;
42944;SDS011;28584;42.636;23.294;2023-07-22T07:08:45;18.40;;;8.93;;
42944;SDS011;28584;42.636;23.294;2023-07-22T07:11:10;12.65;;;9.15;;
42944;SDS011;28584;42.636;23.294;2023-07-22T07:13:36;12.90;;;8.18;;
42944;SDS011;28584;42.636;23.294;2023-07-22T07:16:20;14.10;;;7.75;;
42944;SDS011;28584;42.636;23.294;2023-07-22T07:18:50;16.35;;;8.13;;
42944;SDS011;28584;42.636;23.294;2023-07-22T07:21:17;10.82;;;7.30;;
42944;SDS011;28584;42.636;23.294;2023-07-22T07:23:43;14.02;;;8.27;;
42944;SDS011;28584;42.636;23.294;2023-07-22T07:26:09;14.85;;;8.57;;
42944;SDS011;28584;42.636;23.294;2023-07-22T07:28:34;12.38;;;8.80;;
42944;SDS011;28584;42.636;23.294;2023-07-22T07:31:00;12.52;;;8.23;;
42944;SDS011;28584;42.636;23.294;2023-07-22T07:33:25;12.90;;;8.27;;
42944;SDS011;28584;42.636;23.294;2023-07-22T07:35:50;13.95;;;8.50;;
42944;SDS011;28584;42.636;23.294;2023-07-22T07:38:16;17.50;;;8.95;;
42944;SDS011;28584;42.636;23.294;2023-07-22T07:40:42;15.00;;;9.18;;
42944;SDS011;28584;42.636;23.294;2023-07-22T07:43:07;15.13;;;9.88;;
42944;SDS011;28584;42.636;23.294;2023-07-22T07:45:33;11.13;;;8.45;;
42944;SDS011;28584;42.636;23.294;2023-07-22T07:47:58;17.45;;;10.02;;
42944;SDS011;28584;42.636;23.294;2023-07-22T07:50:24;14.35;;;9.02;;
42944;SDS011;28584;42.636;23.294;2023-07-22T07:52:49;15.23;;;9.70;;
42944;SDS011;28584;42.636;23.294;2023-07-22T07:55:15;13.20;;;9.30;;
42944;SDS011;28584;42.636;23.294;2023-07-22T07:57:40;14.82;;;9.75;;
42944;SDS011;28584;42.636;23.294;2023-07-22T08:00:05;16.08;;;9.23;;
42944;SDS011;28584;42.636;23.294;2023-07-22T08:02:34;16.75;;;9.30;;
42944;SDS011;28584;42.636;23.294;2023-07-22T08:05:00;16.63;;;9.63;;
42944;SDS011;28584;42.636;23.294;2023-07-22T08:07:25;16.85;;;10.23;;
42944;SDS011;28584;42.636;23.294;2023-07-22T08:09:51;19.40;;;8.98;;
42944;SDS011;28584;42.636;23.294;2023-07-22T08:12:17;14.77;;;10.25;;
42944;SDS011;28584;42.636;23.294;2023-07-22T08:14:43;20.95;;;10.30;;
42944;SDS011;28584;42.636;23.294;2023-07-22T08:17:09;23.15;;;11.40;;
42944;SDS011;28584;42.636;23.294;2023-07-22T08:19:35;20.02;;;9.90;;
42944;SDS011;28584;42.636;23.294;2023-07-22T08:22:00;16.70;;;9.98;;
42944;SDS011;28584;42.636;23.294;2023-07-22T08:24:26;16.60;;;9.85;;
42944;SDS011;28584;42.636;23.294;2023-07-22T08:26:51;19.40;;;9.88;;
42944;SDS011;28584;42.636;23.294;2023-07-22T08:29:16;17.65;;;10.07;;
42944;SDS011;28584;42.636;23.294;2023-07-22T08:31:42;16.10;;;9.65;;
42944;SDS011;28584;42.636;23.294;2023-07-22T08:34:07;18.52;;;9.93;;
42944;SDS011;28584;42.636;23.294;2023-07-22T08:36:33;19.45;;;9.90;;
42944;SDS011;28584;42.636;23.294;2023-07-22T08:38:59;18.45;;;10.00;;
42944;SDS011;28584;42.636;23.294;2023-07-22T08:41:24;15.40;;;9.85;;
42944;SDS011;28584;42.636;23.294;2023-07-22T08:43:51;16.50;;;10.18;;
42944;SDS011;28584;42.636;23.294;2023-07-22T08:46:19;16.33;;;9.30;;
42944;SDS011;28584;42.636;23.294;2023-07-22T08:48:47;21.65;;;10.15;;
42944;SDS011;28584;42.636;23.294;2023-07-22T08:51:17;14.80;;;10.07;;
42944;SDS011;28584;42.636;23.294;2023-07-22T08:53:43;14.40;;;9.07;;
42944;SDS011;28584;42.636;23.294;2023-07-22T08:56:10;12.23;;;8.88;;
42944;SDS011;28584;42.636;23.294;2023-07-22T08:58:36;17.80;;;10.18;;
42944;SDS011;28584;42.636;23.294;2023-07-22T09:01:03;20.50;;;9.57;;
42944;SDS011;28584;42.636;23.294;2023-07-22T09:03:29;15.45;;;9.82;;
42944;SDS011;28584;42.636;23.294;2023-07-22T09:05:54;18.23;;;10.07;;
42944;SDS011;28584;42.636;23.294;2023-07-22T09:08:20;16.63;;;10.38;;
42944;SDS011;28584;42.636;23.294;2023-07-22T09:10:46;17.42;;;11.07;;
42944;SDS011;28584;42.636;23.294;2023-07-22T09:13:13;16.20;;;10.13;;
42944;SDS011;28584;42.636;23.294;2023-07-22T09:15:39;22.05;;;11.38;;
42944;SDS011;28584;42.636;23.294;2023-07-22T09:18:05;20.00;;;9.35;;
42944;SDS011;28584;42.636;23.294;2023-07-22T09:20:31;21.83;;;10.10;;
42944;SDS011;28584;42.636;23.294;2023-07-22T09:22:58;16.02;;;9.18;;
42944;SDS011;28584;42.636;23.294;2023-07-22T09:25:25;16.25;;;9.68;;
42944;SDS011;28584;42.636;23.294;2023-07-22T09:27:54;15.75;;;9.60;;
42944;SDS011;28584;42.636;23.294;2023-07-22T09:30:26;16.27;;;9.15;;
42944;SDS011;28584;42.636;23.294;2023-07-22T09:32:59;17.63;;;8.55;;
42944;SDS011;28584;42.636;23.294;2023-07-22T09:35:49;15.23;;;9.18;;
42944;SDS011;28584;42.636;23.294;2023-07-22T09:38:14;14.52;;;9.27;;
42944;SDS011;28584;42.636;23.294;2023-07-22T09:40:47;18.10;;;9.85;;
42944;SDS011;28584;42.636;23.294;2023-07-22T09:43:13;21.35;;;10.00;;
42944;SDS011;28584;42.636;23.294;2023-07-22T09:45:38;13.48;;;8.95;;
42944;SDS011;28584;42.636;23.294;2023-07-22T09:48:04;16.90;;;8.93;;
42944;SDS011;28584;42.636;23.294;2023-07-22T09:50:30;22.52;;;9.57;;
42944;SDS011;28584;42.636;23.294;2023-07-22T09:52:56;14.98;;;9.05;;
42944;SDS011;28584;42.636;23.294;2023-07-22T09:55:27;16.77;;;9.45;;
42944;SDS011;28584;42.636;23.294;2023-07-22T09:57:54;15.73;;;8.45;;
42944;SDS011;28584;42.636;23.294;2023-07-22T10:00:27;20.15;;;8.88;;
42944;SDS011;28584;42.636;23.294;2023-07-22T10:02:58;19.00;;;8.82;;
42944;SDS011;28584;42.636;23.294;2023-07-22T10:05:24;20.77;;;9.85;;
42944;SDS011;28584;42.636;23.294;2023-07-22T10:07:52;16.85;;;9.32;;
42944;SDS011;28584;42.636;23.294;2023-07-22T10:10:20;20.52;;;9.32;;
42944;SDS011;28584;42.636;23.294;2023-07-22T10:12:48;14.95;;;8.85;;
42944;SDS011;28584;42.636;23.294;2023-07-22T10:15:15;17.30;;;8.63;;
42944;SDS011;28584;42.636;23.294;2023-07-22T10:17:43;21.15;;;9.10;;
42944;SDS011;28584;42.636;23.294;2023-07-22T10:20:09;18.00;;;8.88;;
42944;SDS011;28584;42.636;23.294;2023-07-22T10:22:40;21.42;;;9.00;;
42944;SDS011;28584;42.636;23.294;2023-07-22T10:25:07;18.25;;;8.68;;
42944;SDS011;28584;42.636;23.294;2023-07-22T10:27:34;18.27;;;9.07;;
42944;SDS011;28584;42.636;23.294;2023-07-22T10:30:00;24.08;;;8.60;;
42944;SDS011;28584;42.636;23.294;2023-07-22T10:33:09;21.02;;;7.07;;
42944;SDS011;28584;42.636;23.294;2023-07-22T10:35:23;24.85;;;7.72;;
42944;SDS011;28584;42.636;23.294;2023-07-22T10:40:44;21.25;;;6.07;;
42944;SDS011;28584;42.636;23.294;2023-07-22T10:43:17;22.60;;;6.70;;
42944;SDS011;28584;42.636;23.294;2023-07-22T10:45:55;28.63;;;7.50;;
42944;SDS011;28584;42.636;23.294;2023-07-22T10:48:22;25.20;;;7.03;;
42944;SDS011;28584;42.636;23.294;2023-07-22T10:50:54;27.83;;;6.90;;
42944;SDS011;28584;42.636;23.294;2023-07-22T11:14:33;32.85;;;7.57;;
42944;SDS011;28584;42.636;23.294;2023-07-22T11:17:03;27.45;;;6.75;;
42944;SDS011;28584;42.636;23.294;2023-07-22T11:19:30;21.52;;;6.55;;
42944;SDS011;28584;42.636;23.294;2023-07-22T11:21:56;18.95;;;5.75;;
42944;SDS011;28584;42.636;23.294;2023-07-22T11:24:22;29.92;;;7.43;;
42944;SDS011;28584;42.636;23.294;2023-07-22T11:26:49;25.83;;;6.43;;
42944;SDS011;28584;42.636;23.294;2023-07-22T11:29:15;23.63;;;6.47;;
42944;SDS011;28584;42.636;23.294;2023-07-22T11:31:42;25.20;;;6.88;;
42944;SDS011;28584;42.636;23.294;2023-07-22T11:34:13;20.77;;;5.68;;
42944;SDS011;28584;42.636;23.294;2023-07-22T11:36:46;25.10;;;7.10;;
42944;SDS011;28584;42.636;23.294;2023-07-22T11:39:16;19.13;;;6.38;;
42944;SDS011;28584;42.636;23.294;2023-07-22T11:41:44;27.48;;;7.10;;
42944;SDS011;28584;42.636;23.294;2023-07-22T11:44:11;27.75;;;6.75;;
42944;SDS011;28584;42.636;23.294;2023-07-22T11:49:35;23.98;;;6.50;;
42944;SDS011;28584;42.636;23.294;2023-07-22T11:52:06;25.38;;;6.28;;
42944;SDS011;28584;42.636;23.294;2023-07-22T11:54:35;21.23;;;6.50;;
42944;SDS011;28584;42.636;23.294;2023-07-22T11:59:38;23.35;;;6.60;;
42944;SDS011;28584;42.636;23.294;2023-07-22T12:02:05;22.73;;;6.55;;
42944;SDS011;28584;42.636;23.294;2023-07-22T12:04:34;25.83;;;6.47;;
42944;SDS011;28584;42.636;23.294;2023-07-22T12:07:00;27.23;;;6.70;;
42944;SDS011;28584;42.636;23.294;2023-07-22T12:09:26;20.45;;;6.55;;
42944;SDS011;28584;42.636;23.294;2023-07-22T12:11:55;30.35;;;6.80;;
42944;SDS011;28584;42.636;23.294;2023-07-22T12:14:22;29.08;;;6.63;;
42944;SDS011;28584;42.636;23.294;2023-07-22T12:16:48;26.17;;;6.47;;
42944;SDS011;28584;42.636;23.294;2023-07-22T12:19:20;24.88;;;6.65;;
42944;SDS011;28584;42.636;23.294;2023-07-22T12:21:46;28.05;;;6.95;;
42944;SDS011;28584;42.636;23.294;2023-07-22T12:24:13;26.05;;;6.53;;
42944;SDS011;28584;42.636;23.294;2023-07-22T12:26:39;21.40;;;6.68;;
42944;SDS011;28584;42.636;23.294;2023-07-22T12:29:04;31.80;;;6.30;;
42944;SDS011;28584;42.636;23.294;2023-07-22T12:31:30;22.63;;;6.72;;
42944;SDS011;28584;42.636;23.294;2023-07-22T12:33:55;24.02;;;6.60;;
42944;SDS011;28584;42.636;23.294;2023-07-22T12:36:20;29.05;;;6.68;;
42944;SDS011;28584;42.636;23.294;2023-07-22T12:38:46;25.27;;;7.00;;
42944;SDS011;28584;42.636;23.294;2023-07-22T12:41:11;22.10;;;5.78;;
42944;SDS011;28584;42.636;23.294;2023-07-22T12:43:37;30.73;;;6.63;;
42944;SDS011;28584;42.636;23.294;2023-07-22T12:46:02;19.00;;;6.07;;
42944;SDS011;28584;42.636;23.294;2023-07-22T12:48:28;24.13;;;6.28;;
42944;SDS011;28584;42.636;23.294;2023-07-22T12:50:53;25.02;;;6.60;;
42944;SDS011;28584;42.636;23.294;2023-07-22T12:53:19;21.75;;;6.53;;
42944;SDS011;28584;42.636;23.294;2023-07-22T12:55:45;24.13;;;6.13;;
42944;SDS011;28584;42.636;23.294;2023-07-22T12:58:10;22.20;;;6.70;;
42944;SDS011;28584;42.636;23.294;2023-07-22T13:00:36;23.08;;;5.80;;
42944;SDS011;28584;42.636;23.294;2023-07-22T13:03:01;24.95;;;6.82;;
42944;SDS011;28584;42.636;23.294;2023-07-22T13:05:27;23.90;;;6.13;;
42944;SDS011;28584;42.636;23.294;2023-07-22T13:07:52;20.98;;;5.82;;
42944;SDS011;28584;42.636;23.294;2023-07-22T13:10:18;27.27;;;6.10;;
42944;SDS011;28584;42.636;23.294;2023-07-22T13:12:50;29.10;;;7.00;;
42944;SDS011;28584;42.636;23.294;2023-07-22T13:15:16;26.65;;;6.32;;
42944;SDS011;28584;42.636;23.294;2023-07-22T13:17:41;24.17;;;6.45;;
42944;SDS011;28584;42.636;23.294;2023-07-22T13:20:07;22.38;;;6.32;;
42944;SDS011;28584;42.636;23.294;2023-07-22T13:22:34;19.60;;;6.18;;
42944;SDS011;28584;42.636;23.294;2023-07-22T13:25:00;23.20;;;6.53;;
42944;SDS011;28584;42.636;23.294;2023-07-22T13:27:26;24.63;;;6.55;;
42944;SDS011;28584;42.636;23.294;2023-07-22T13:29:51;24.83;;;7.38;;
42944;SDS011;28584;42.636;23.294;2023-07-22T13:32:17;24.23;;;6.05;;
42944;SDS011;28584;42.636;23.294;2023-07-22T13:34:42;27.80;;;6.82;;
42944;SDS011;28584;42.636;23.294;2023-07-22T13:37:08;28.23;;;6.45;;
42944;SDS011;28584;42.636;23.294;2023-07-22T13:39:33;26.42;;;5.70;;
42944;SDS011;28584;42.636;23.294;2023-07-22T13:41:58;22.75;;;6.63;;
42944;SDS011;28584;42.636;23.294;2023-07-22T13:44:24;26.30;;;6.95;;
42944;SDS011;28584;42.636;23.294;2023-07-22T13:46:49;25.70;;;6.88;;
42944;SDS011;28584;42.636;23.294;2023-07-22T13:49:15;29.55;;;6.85;;
42944;SDS011;28584;42.636;23.294;2023-07-22T13:51:40;22.13;;;5.78;;
42944;SDS011;28584;42.636;23.294;2023-07-22T13:54:06;18.67;;;5.97;;
42944;SDS011;28584;42.636;23.294;2023-07-22T13:56:32;21.77;;;6.18;;
42944;SDS011;28584;42.636;23.294;2023-07-22T13:58:57;29.90;;;6.30;;
42944;SDS011;28584;42.636;23.294;2023-07-22T14:01:26;30.15;;;6.57;;
42944;SDS011;28584;42.636;23.294;2023-07-22T14:03:51;30.27;;;6.80;;
42944;SDS011;28584;42.636;23.294;2023-07-22T14:06:18;24.42;;;6.65;;
42944;SDS011;28584;42.636;23.294;2023-07-22T14:08:43;22.63;;;6.20;;
42944;SDS011;28584;42.636;23.294;2023-07-22T14:11:09;25.63;;;6.22;;
42944;SDS011;28584;42.636;23.294;2023-07-22T14:13:34;23.13;;;7.15;;
42944;SDS011;28584;42.636;23.294;2023-07-22T14:16:01;28.02;;;6.50;;
42944;SDS011;28584;42.636;23.294;2023-07-22T14:18:28;26.77;;;6.20;;
42944;SDS011;28584;42.636;23.294;2023-07-22T14:20:54;28.35;;;6.72;;
42944;SDS011;28584;42.636;23.294;2023-07-22T14:23:19;25.08;;;5.68;;
42944;SDS011;28584;42.636;23.294;2023-07-22T14:25:44;28.10;;;6.38;;
42944;SDS011;28584;42.636;23.294;2023-07-22T14:28:10;20.73;;;6.05;;
42944;SDS011;28584;42.636;23.294;2023-07-22T14:30:35;24.23;;;6.45;;
42944;SDS011;28584;42.636;23.294;2023-07-22T14:33:01;24.27;;;6.10;;
42944;SDS011;28584;42.636;23.294;2023-07-22T14:35:26;25.42;;;6.28;;
42944;SDS011;28584;42.636;23.294;2023-07-22T14:37:51;24.73;;;6.43;;
42944;SDS011;28584;42.636;23.294;2023-07-22T14:40:17;27.33;;;6.82;;
42944;SDS011;28584;42.636;23.294;2023-07-22T14:42:42;26.83;;;6.93;;
42944;SDS011;28584;42.636;23.294;2023-07-22T14:45:08;27.65;;;6.70;;